Time;durP1;ratioP1;P1;durP2;ratioP2;P2;SDS_P1;SDS_P2;PMS_P1;PMS_P2;Temp;Humidity;BMP_temperature;BMP_pressure;BME280_temperature;BME280_humidity;BME280_pressure;Samples;Min_cycle;Max_cycle;Signal;HPM_P1;HPM_P2
2021/12/31 00:02:33;;;;;;;2.00;1.80;;;14.30;99.90;;;;;;5076563;28;20467;-62
2021/12/31 00:05:14;;;;;;;1.97;1.77;;;14.30;99.90;;;;;;5076163;28;20806;-62
2021/12/31 00:08:02;;;;;;;2.50;1.90;;;14.30;99.90;;;;;;5075591;28;20450;-63
2021/12/31 00:10:30;;;;;;;2.07;1.87;;;14.30;99.90;;;;;;5075881;28;20499;-62
2021/12/31 00:13:15;;;;;;;3.00;1.90;;;14.40;99.90;;;;;;5075929;28;20480;-62
2021/12/31 00:16:02;;;;;;;3.80;2.10;;;14.30;99.90;;;;;;5075736;28;20600;-62
2021/12/31 00:18:30;;;;;;;3.73;2.60;;;14.40;99.90;;;;;;5075974;28;20516;-62
2021/12/31 00:20:57;;;;;;;1.80;1.70;;;14.30;99.90;;;;;;5075986;28;20905;-62
2021/12/31 00:23:26;;;;;;;2.13;1.70;;;14.30;99.90;;;;;;5076229;28;20444;-62
2021/12/31 00:25:54;;;;;;;1.60;1.50;;;14.20;99.90;;;;;;5076138;28;20497;-62
2021/12/31 00:28:22;;;;;;;2.93;1.97;;;14.30;99.90;;;;;;5075920;28;20448;-62
2021/12/31 00:30:53;;;;;;;2.20;1.90;;;14.30;99.90;;;;;;5075958;28;20550;-62
2021/12/31 00:33:21;;;;;;;3.30;1.63;;;14.30;99.90;;;;;;5076038;28;20516;-63
2021/12/31 00:35:49;;;;;;;3.20;2.00;;;14.30;99.90;;;;;;5075475;28;20484;-63
2021/12/31 00:38:16;;;;;;;2.43;1.70;;;14.30;99.90;;;;;;5075738;28;20807;-62
2021/12/31 00:40:44;;;;;;;3.33;1.57;;;14.20;99.90;;;;;;5075514;28;20483;-63
2021/12/31 00:43:11;;;;;;;2.33;2.00;;;14.20;99.90;;;;;;5075806;28;20452;-63
2021/12/31 00:45:40;;;;;;;2.23;2.03;;;14.10;99.90;;;;;;5076068;28;20787;-62
2021/12/31 00:48:10;;;;;;;1.80;1.70;;;14.00;99.90;;;;;;5075418;28;20931;-62
2021/12/31 00:50:38;;;;;;;2.70;1.77;;;14.00;99.90;;;;;;5075731;28;20471;-62
2021/12/31 00:53:06;;;;;;;3.17;1.90;;;14.00;99.90;;;;;;5075798;28;20449;-62
2021/12/31 00:55:34;;;;;;;2.70;1.93;;;14.00;99.90;;;;;;5075526;28;20566;-62
2021/12/31 00:58:01;;;;;;;1.77;1.63;;;13.90;99.90;;;;;;5075392;28;20429;-62
2021/12/31 01:00:29;;;;;;;1.97;1.83;;;13.90;99.90;;;;;;5075533;28;20863;-62
2021/12/31 01:02:56;;;;;;;3.60;2.67;;;13.90;99.90;;;;;;5075035;28;20456;-62
2021/12/31 01:05:25;;;;;;;2.10;1.90;;;13.90;99.90;;;;;;5075283;28;20436;-62
2021/12/31 01:07:52;;;;;;;2.27;2.00;;;13.80;99.90;;;;;;5075163;28;20896;-62
2021/12/31 01:10:23;;;;;;;2.27;2.07;;;13.90;99.90;;;;;;5075046;28;20554;-62
2021/12/31 01:12:51;;;;;;;2.17;2.03;;;13.90;99.90;;;;;;5073692;28;20523;-62
2021/12/31 01:15:22;;;;;;;2.37;1.90;;;13.90;99.90;;;;;;5074964;28;20519;-62
2021/12/31 01:18:16;;;;;;;2.10;1.90;;;13.90;99.90;;;;;;5075014;28;20437;-62
2021/12/31 01:20:45;;;;;;;4.30;2.33;;;13.90;99.90;;;;;;5074852;28;20475;-63
2021/12/31 01:23:15;;;;;;;1.73;1.63;;;13.80;99.90;;;;;;5074843;28;20545;-62
2021/12/31 01:25:42;;;;;;;2.00;1.90;;;13.80;99.90;;;;;;5075164;28;20483;-62
2021/12/31 01:28:09;;;;;;;3.63;2.00;;;13.80;99.90;;;;;;5074965;28;20455;-62
2021/12/31 01:30:36;;;;;;;5.30;2.17;;;13.80;99.90;;;;;;5074974;28;20789;-62
2021/12/31 01:33:04;;;;;;;1.80;1.70;;;13.70;99.90;;;;;;5074857;28;20448;-62
2021/12/31 01:35:31;;;;;;;2.13;1.70;;;13.70;99.90;;;;;;5074708;28;20489;-62
2021/12/31 01:37:59;;;;;;;1.77;1.67;;;13.80;99.90;;;;;;5074978;28;20840;-62
2021/12/31 01:40:26;;;;;;;1.90;1.70;;;13.80;99.90;;;;;;5074681;28;20806;-62
2021/12/31 01:42:54;;;;;;;1.87;1.77;;;13.70;99.90;;;;;;5074323;28;20929;-62
2021/12/31 01:45:23;;;;;;;2.73;1.80;;;13.60;99.90;;;;;;5074708;28;20799;-62
2021/12/31 01:48:07;;;;;;;2.00;1.90;;;13.60;99.90;;;;;;5074546;28;20448;-62
2021/12/31 01:50:36;;;;;;;2.13;1.83;;;13.50;99.90;;;;;;5074244;28;20873;-62
2021/12/31 01:53:06;;;;;;;4.60;1.70;;;13.40;99.90;;;;;;5074292;28;20487;-62
2021/12/31 01:55:35;;;;;;;2.30;2.10;;;13.40;99.90;;;;;;5074368;28;20557;-62
2021/12/31 01:58:03;;;;;;;2.07;1.87;;;13.40;99.90;;;;;;5074195;28;20448;-62
2021/12/31 02:00:30;;;;;;;2.03;1.87;;;13.30;99.90;;;;;;5074161;28;20460;-62
2021/12/31 02:03:00;;;;;;;2.80;1.90;;;13.30;99.90;;;;;;5074222;28;20454;-62
2021/12/31 02:05:27;;;;;;;1.67;1.57;;;13.30;99.90;;;;;;5074173;28;20448;-62
2021/12/31 02:07:54;;;;;;;2.43;2.23;;;13.30;99.90;;;;;;5074366;28;20570;-62
2021/12/31 02:10:23;;;;;;;1.90;1.67;;;13.20;99.90;;;;;;5074173;28;20473;-62
2021/12/31 02:12:50;;;;;;;2.10;1.80;;;13.10;99.90;;;;;;5073782;28;20479;-62
2021/12/31 02:15:19;;;;;;;2.23;2.03;;;13.10;99.90;;;;;;5073245;28;20480;-62
2021/12/31 02:17:49;;;;;;;3.97;2.73;;;13.00;99.90;;;;;;5073993;28;20558;-62
2021/12/31 02:20:19;;;;;;;2.67;2.00;;;13.00;99.90;;;;;;5073721;28;20468;-61
2021/12/31 02:22:54;;;;;;;2.70;1.97;;;12.90;99.90;;;;;;5074023;28;20472;-62
2021/12/31 02:25:23;;;;;;;4.00;2.43;;;12.70;99.90;;;;;;5073761;28;20427;-62
2021/12/31 02:27:51;;;;;;;2.83;2.07;;;12.70;99.90;;;;;;5074089;28;20479;-62
2021/12/31 02:30:18;;;;;;;2.63;1.77;;;12.70;99.90;;;;;;5073483;28;20821;-62
2021/12/31 02:32:45;;;;;;;2.57;2.37;;;12.70;99.90;;;;;;5073856;28;20480;-62
2021/12/31 02:35:12;;;;;;;1.90;1.73;;;12.60;99.90;;;;;;5073737;28;20833;-62
2021/12/31 02:37:41;;;;;;;4.53;2.20;;;12.70;99.90;;;;;;5074219;28;20444;-62
2021/12/31 02:40:12;;;;;;;4.00;2.13;;;12.60;99.90;;;;;;5073569;28;20822;-62
2021/12/31 02:42:44;;;;;;;2.00;1.80;;;12.60;99.90;;;;;;5073816;28;20451;-62
2021/12/31 02:45:13;;;;;;;2.30;2.10;;;12.50;99.90;;;;;;5073272;28;20441;-62
2021/12/31 02:47:44;;;;;;;2.13;1.80;;;12.50;99.90;;;;;;5073691;28;20474;-62
2021/12/31 02:50:13;;;;;;;2.57;2.30;;;12.40;99.90;;;;;;5073214;28;20999;-62
2021/12/31 02:52:42;;;;;;;2.87;2.23;;;12.20;99.90;;;;;;5073644;28;20448;-62
2021/12/31 02:55:11;;;;;;;2.70;1.70;;;12.10;99.90;;;;;;5073249;28;20476;-62
2021/12/31 02:57:39;;;;;;;2.00;1.83;;;12.00;99.90;;;;;;5073722;28;20470;-62
2021/12/31 03:00:08;;;;;;;2.30;2.10;;;12.10;99.90;;;;;;5073317;28;20474;-62
2021/12/31 03:02:38;;;;;;;2.17;1.97;;;12.00;99.90;;;;;;5073544;28;20452;-62
2021/12/31 03:05:06;;;;;;;2.47;2.20;;;11.90;99.90;;;;;;5073432;28;20451;-62
2021/12/31 03:07:34;;;;;;;5.20;2.00;;;12.00;99.90;;;;;;5072921;28;20455;-61
2021/12/31 03:10:03;;;;;;;2.07;1.87;;;11.90;99.90;;;;;;5073350;28;20539;-63
2021/12/31 03:12:31;;;;;;;6.60;2.00;;;11.90;99.90;;;;;;5073274;28;20832;-62
2021/12/31 03:14:58;;;;;;;3.00;1.93;;;11.90;99.90;;;;;;5073112;28;20456;-62
2021/12/31 03:17:26;;;;;;;3.37;2.10;;;11.90;99.90;;;;;;5073235;28;20444;-63
2021/12/31 03:20:07;;;;;;;2.60;1.90;;;11.90;99.90;;;;;;5073136;28;20444;-63
2021/12/31 03:22:34;;;;;;;2.00;1.80;;;11.90;99.90;;;;;;5073476;28;20424;-63
2021/12/31 03:25:03;;;;;;;3.50;2.40;;;11.90;99.90;;;;;;5072878;28;20806;-63
2021/12/31 03:27:30;;;;;;;2.43;1.97;;;11.90;99.90;;;;;;5076662;28;20935;-62
2021/12/31 03:29:57;;;;;;;1.77;1.67;;;12.00;99.90;;;;;;5077285;28;20463;-63
2021/12/31 03:32:24;;;;;;;2.37;2.17;;;12.00;99.90;;;;;;5077140;28;20937;-64
2021/12/31 03:34:51;;;;;;;2.00;1.80;;;12.10;99.90;;;;;;5076789;28;20452;-63
2021/12/31 03:37:19;;;;;;;2.00;1.90;;;12.00;99.90;;;;;;5076718;28;20463;-63
2021/12/31 03:39:46;;;;;;;1.70;1.57;;;12.00;99.90;;;;;;5076817;28;20961;-63
2021/12/31 03:42:16;;;;;;;2.53;1.93;;;12.00;99.90;;;;;;5076621;28;20455;-63
2021/12/31 03:44:43;;;;;;;2.73;2.20;;;11.90;99.90;;;;;;5077012;28;20448;-63
2021/12/31 03:47:10;;;;;;;3.47;1.87;;;11.90;99.90;;;;;;5076743;28;20444;-62
2021/12/31 03:49:37;;;;;;;5.40;2.60;;;11.90;99.90;;;;;;5076555;28;20455;-63
2021/12/31 03:52:05;;;;;;;2.87;2.60;;;11.80;99.90;;;;;;5076472;28;20993;-63
2021/12/31 03:54:32;;;;;;;3.67;1.90;;;11.80;99.90;;;;;;5076684;28;20448;-63
2021/12/31 03:56:59;;;;;;;3.10;2.20;;;11.80;99.90;;;;;;5076660;28;20491;-63
2021/12/31 03:59:28;;;;;;;2.23;2.03;;;11.70;99.90;;;;;;5076683;28;20806;-63
2021/12/31 04:01:55;;;;;;;2.23;2.10;;;11.60;99.90;;;;;;5076424;28;20468;-63
2021/12/31 04:04:22;;;;;;;2.43;2.23;;;11.60;99.90;;;;;;5076254;28;20448;-63
2021/12/31 04:06:49;;;;;;;2.23;1.87;;;11.70;99.90;;;;;;5076163;28;20456;-63
2021/12/31 04:09:16;;;;;;;2.47;2.07;;;11.50;99.90;;;;;;5076395;28;20448;-63
2021/12/31 04:11:43;;;;;;;2.17;1.80;;;11.60;99.90;;;;;;5076058;28;20468;-63
2021/12/31 04:14:10;;;;;;;3.13;2.33;;;11.40;99.90;;;;;;5076448;28;20429;-63
2021/12/31 04:16:39;;;;;;;2.73;2.47;;;11.30;99.90;;;;;;5076611;28;20483;-63
2021/12/31 04:19:06;;;;;;;2.13;2.03;;;11.30;99.90;;;;;;5076503;28;20808;-63
2021/12/31 04:21:34;;;;;;;3.33;1.70;;;11.20;99.90;;;;;;5075900;28;20473;-63
2021/12/31 04:24:07;;;;;;;5.33;2.30;;;11.30;99.90;;;;;;5076042;28;20448;-63
2021/12/31 04:26:35;;;;;;;4.33;1.90;;;11.30;99.90;;;;;;5076475;28;20590;-62
2021/12/31 04:29:02;;;;;;;3.03;1.87;;;11.30;99.90;;;;;;5076095;28;20445;-63
2021/12/31 04:31:29;;;;;;;2.30;2.10;;;11.30;99.90;;;;;;5075912;28;20534;-63
2021/12/31 04:33:58;;;;;;;2.57;2.10;;;11.30;99.90;;;;;;5075947;28;20455;-63
2021/12/31 04:36:26;;;;;;;3.93;2.20;;;11.30;99.90;;;;;;5075826;28;20491;-62
2021/12/31 04:38:53;;;;;;;2.30;2.10;;;11.20;99.90;;;;;;5074957;28;20455;-62
2021/12/31 04:41:20;;;;;;;2.37;2.10;;;11.10;99.90;;;;;;5075760;28;20993;-62
2021/12/31 04:43:47;;;;;;;2.63;2.27;;;11.10;99.90;;;;;;5075733;28;20482;-62
2021/12/31 04:46:14;;;;;;;2.80;1.97;;;11.20;99.90;;;;;;5076019;28;20437;-62
2021/12/31 04:48:41;;;;;;;3.10;1.93;;;11.10;99.90;;;;;;5075720;28;20458;-62
2021/12/31 04:51:09;;;;;;;2.33;1.90;;;11.10;99.90;;;;;;5075688;28;20480;-62
2021/12/31 04:53:37;;;;;;;3.90;2.70;;;11.10;99.90;;;;;;5075744;28;20447;-62
2021/12/31 04:56:04;;;;;;;2.23;2.03;;;11.00;99.90;;;;;;5075603;28;20587;-62
2021/12/31 04:58:32;;;;;;;2.47;1.87;;;10.90;99.90;;;;;;5075564;28;20463;-62
2021/12/31 05:00:59;;;;;;;3.20;2.33;;;10.90;99.90;;;;;;5075133;28;20811;-63
2021/12/31 05:03:26;;;;;;;2.33;2.13;;;10.90;99.90;;;;;;5075250;28;20935;-62
2021/12/31 05:05:53;;;;;;;3.93;2.60;;;10.80;99.90;;;;;;5075622;28;20802;-62
2021/12/31 05:08:21;;;;;;;2.20;2.00;;;10.70;99.90;;;;;;5075155;28;20927;-62
2021/12/31 05:10:48;;;;;;;3.80;2.13;;;10.70;99.90;;;;;;5075484;28;20827;-62
2021/12/31 05:13:16;;;;;;;2.47;2.27;;;10.80;99.90;;;;;;5075162;28;20482;-62
2021/12/31 05:15:46;;;;;;;2.30;1.80;;;10.70;99.90;;;;;;5075322;28;20488;-62
2021/12/31 05:18:13;;;;;;;3.30;2.20;;;10.60;99.90;;;;;;5075656;28;20448;-62
2021/12/31 05:20:40;;;;;;;3.93;2.23;;;10.60;99.90;;;;;;5075058;28;20453;-63
2021/12/31 05:23:08;;;;;;;2.53;2.27;;;10.70;99.90;;;;;;5074849;28;20445;-63
2021/12/31 05:25:37;;;;;;;2.37;2.10;;;10.60;99.90;;;;;;5074922;28;20444;-63
2021/12/31 05:28:04;;;;;;;2.70;2.50;;;10.70;99.90;;;;;;5075431;28;20444;-63
2021/12/31 05:30:31;;;;;;;3.27;2.20;;;10.60;99.90;;;;;;5074883;28;20464;-63
2021/12/31 05:32:58;;;;;;;5.77;2.53;;;10.50;99.90;;;;;;5074591;28;20444;-63
2021/12/31 05:35:25;;;;;;;3.00;2.57;;;10.50;99.90;;;;;;5074845;28;20478;-63
2021/12/31 05:37:52;;;;;;;2.33;2.13;;;10.50;99.90;;;;;;5074543;28;20559;-63
2021/12/31 05:40:20;;;;;;;2.43;2.23;;;10.50;99.90;;;;;;5074702;28;20504;-63
2021/12/31 05:42:48;;;;;;;2.77;2.47;;;10.60;99.90;;;;;;5074824;28;20445;-63
2021/12/31 05:45:15;;;;;;;3.83;2.60;;;10.50;99.90;;;;;;5074637;28;20452;-62
2021/12/31 05:47:42;;;;;;;2.00;1.80;;;;;;;;;;5074566;28;20441;-62
2021/12/31 05:50:19;;;;;;;2.73;2.53;;;10.40;99.90;;;;;;5073591;28;20464;-63
2021/12/31 05:52:46;;;;;;;2.50;2.30;;;10.40;99.90;;;;;;5074694;28;20432;-63
2021/12/31 05:55:13;;;;;;;2.80;2.07;;;10.40;99.90;;;;;;5074386;28;20444;-63
2021/12/31 05:57:40;;;;;;;2.73;2.00;;;10.40;99.90;;;;;;5074090;28;20472;-63
2021/12/31 06:00:10;;;;;;;2.17;1.90;;;10.50;99.90;;;;;;5074402;28;20822;-63
2021/12/31 06:02:37;;;;;;;2.07;1.87;;;10.50;99.90;;;;;;5074386;28;20444;-62
2021/12/31 06:05:05;;;;;;;1.93;1.80;;;10.30;99.90;;;;;;5073966;28;20802;-63
2021/12/31 06:07:32;;;;;;;2.20;2.00;;;10.40;99.90;;;;;;5073926;28;20475;-63
2021/12/31 06:09:59;;;;;;;3.00;2.17;;;10.40;99.90;;;;;;5073810;28;20806;-63
2021/12/31 06:12:26;;;;;;;2.30;2.10;;;10.50;99.90;;;;;;5073874;28;20480;-63
2021/12/31 06:14:57;;;;;;;2.27;2.00;;;10.40;99.90;;;;;;5074208;28;20449;-63
2021/12/31 06:17:26;;;;;;;4.73;2.20;;;10.40;99.90;;;;;;5073831;28;20464;-62
2021/12/31 06:19:54;;;;;;;4.17;2.73;;;10.40;99.90;;;;;;5073622;28;20942;-63
2021/12/31 06:22:21;;;;;;;2.90;2.70;;;10.40;99.90;;;;;;5073893;28;20522;-62
2021/12/31 06:24:49;;;;;;;6.40;2.70;;;10.40;99.90;;;;;;5073720;28;20452;-62
2021/12/31 06:27:16;;;;;;;3.23;2.50;;;10.50;99.90;;;;;;5073823;28;20445;-62
2021/12/31 06:29:43;;;;;;;3.97;2.03;;;10.40;99.90;;;;;;5073516;28;20429;-62
2021/12/31 06:32:11;;;;;;;3.30;2.30;;;10.40;99.90;;;;;;5073940;28;20444;-63
2021/12/31 06:34:39;;;;;;;2.70;2.37;;;10.40;99.90;;;;;;5073486;28;20454;-63
2021/12/31 06:37:07;;;;;;;1.87;1.77;;;10.30;99.90;;;;;;5073731;28;20526;-63
2021/12/31 06:39:35;;;;;;;2.60;2.40;;;10.10;99.90;;;;;;5073826;28;20448;-63
2021/12/31 06:42:03;;;;;;;3.53;2.13;;;10.20;99.90;;;;;;5073264;28;20556;-63
2021/12/31 06:44:31;;;;;;;2.80;2.50;;;10.20;99.90;;;;;;5073440;28;20923;-63
2021/12/31 06:46:58;;;;;;;3.10;2.80;;;10.20;99.90;;;;;;5073417;28;20962;-63
2021/12/31 06:49:25;;;;;;;3.63;3.33;;;10.30;99.90;;;;;;5073541;28;20448;-63
2021/12/31 06:51:53;;;;;;;2.63;2.37;;;10.20;99.90;;;;;;5073321;28;20563;-63
2021/12/31 06:54:20;;;;;;;2.93;2.43;;;10.20;99.90;;;;;;5073274;28;20444;-62
2021/12/31 06:56:47;;;;;;;2.30;2.10;;;10.20;99.90;;;;;;5073098;28;20476;-62
2021/12/31 06:59:14;;;;;;;2.70;2.43;;;10.20;99.90;;;;;;5073384;28;20451;-62
2021/12/31 07:01:42;;;;;;;3.20;2.10;;;10.20;99.90;;;;;;5072759;28;21005;-62
2021/12/31 07:04:10;;;;;;;3.50;2.30;;;10.20;99.90;;;;;;5073709;28;20531;-62
2021/12/31 07:06:37;;;;;;;4.50;2.67;;;10.20;99.90;;;;;;5072939;28;20488;-62
2021/12/31 07:09:06;;;;;;;3.43;2.43;;;10.30;99.90;;;;;;5072938;28;20953;-62
2021/12/31 07:11:33;;;;;;;2.90;2.70;;;10.30;99.90;;;;;;5073251;28;20492;-62
2021/12/31 07:14:00;;;;;;;2.20;1.97;;;10.20;99.90;;;;;;5072799;28;20476;-62
2021/12/31 07:16:27;;;;;;;2.60;1.93;;;10.20;99.90;;;;;;5073196;28;20515;-62
2021/12/31 07:18:54;;;;;;;2.63;2.17;;;10.10;99.90;;;;;;5073379;28;20446;-63
2021/12/31 07:21:22;;;;;;;3.10;1.97;;;10.00;99.90;;;;;;5073106;28;20480;-62
2021/12/31 07:23:49;;;;;;;3.20;2.43;;;10.00;99.90;;;;;;5072882;28;20953;-62
2021/12/31 07:26:17;;;;;;;2.80;2.40;;;10.10;99.90;;;;;;5073315;28;20807;-63
2021/12/31 07:28:44;;;;;;;2.40;1.83;;;10.10;99.90;;;;;;5072812;28;20448;-63
2021/12/31 07:31:14;;;;;;;2.20;2.00;;;10.00;99.90;;;;;;5073081;28;20561;-63
2021/12/31 07:33:41;;;;;;;3.73;3.23;;;10.10;99.90;;;;;;5072888;28;20445;-62
2021/12/31 07:36:08;;;;;;;3.03;2.30;;;10.10;99.90;;;;;;5073042;28;20538;-62
2021/12/31 07:38:39;;;;;;;2.80;2.60;;;10.10;99.90;;;;;;5072846;28;20483;-62
2021/12/31 07:41:07;;;;;;;2.57;2.30;;;10.10;99.90;;;;;;5073070;28;20475;-62
2021/12/31 07:43:36;;;;;;;1.80;1.70;;;10.10;99.90;;;;;;5072660;28;20455;-62
2021/12/31 07:46:03;;;;;;;3.50;2.00;;;10.20;99.90;;;;;;5072896;28;20444;-63
2021/12/31 07:48:30;;;;;;;2.50;2.30;;;10.10;99.90;;;;;;5072908;28;20450;-63
2021/12/31 07:50:57;;;;;;;2.27;2.00;;;10.10;99.90;;;;;;5072666;28;20476;-63
2021/12/31 07:53:24;;;;;;;2.43;2.23;;;10.10;99.90;;;;;;5072890;28;20535;-63
2021/12/31 07:55:51;;;;;;;3.07;2.80;;;10.10;99.90;;;;;;5072547;28;20444;-63
2021/12/31 07:58:19;;;;;;;3.30;2.30;;;10.20;99.90;;;;;;5072908;28;20507;-63
2021/12/31 08:00:47;;;;;;;2.87;2.53;;;10.30;99.90;;;;;;5072788;28;20460;-63
2021/12/31 08:03:15;;;;;;;3.73;2.90;;;10.40;99.90;;;;;;5072738;28;20813;-63
2021/12/31 08:05:42;;;;;;;2.80;2.47;;;10.40;99.90;;;;;;5072571;28;21031;-63
2021/12/31 08:08:10;;;;;;;4.07;3.00;;;10.60;99.90;;;;;;5072985;28;20462;-63
2021/12/31 08:10:38;;;;;;;3.83;3.20;;;10.70;99.90;;;;;;5072665;28;20468;-63
2021/12/31 08:13:05;;;;;;;5.83;3.37;;;10.80;99.90;;;;;;5073595;28;20539;-63
2021/12/31 08:15:32;;;;;;;4.70;3.97;;;10.90;99.90;;;;;;5076082;28;20454;-63
2021/12/31 08:18:01;;;;;;;4.20;3.67;;;10.90;99.90;;;;;;5075941;28;20486;-63
2021/12/31 08:20:28;;;;;;;4.37;3.97;;;11.00;99.90;;;;;;5076525;28;20518;-63
2021/12/31 08:23:00;;;;;;;4.23;3.63;;;11.10;99.90;;;;;;5075919;28;20444;-63
2021/12/31 08:25:27;;;;;;;3.97;3.20;;;11.10;99.90;;;;;;5076335;28;20436;-63
2021/12/31 08:27:54;;;;;;;6.80;4.47;;;11.10;99.90;;;;;;5076054;28;20443;-63
2021/12/31 08:30:22;;;;;;;3.73;3.27;;;11.30;99.90;;;;;;5076269;28;20597;-63
2021/12/31 08:32:49;;;;;;;4.17;3.80;;;11.30;99.90;;;;;;5076091;28;20451;-63
2021/12/31 08:35:17;;;;;;;5.30;3.97;;;11.40;99.90;;;;;;5075528;28;20931;-63
2021/12/31 08:37:45;;;;;;;5.37;4.47;;;11.30;99.90;;;;;;5075704;28;21058;-63
2021/12/31 08:40:13;;;;;;;4.30;3.90;;;11.40;99.90;;;;;;5075695;28;20472;-63
2021/12/31 08:42:40;;;;;;;3.50;3.20;;;11.40;99.90;;;;;;5075476;28;20476;-63
2021/12/31 08:45:08;;;;;;;8.00;4.50;;;11.50;99.90;;;;;;5075548;28;20459;-63
2021/12/31 08:47:36;;;;;;;4.70;4.10;;;11.60;99.90;;;;;;5075654;28;20454;-63
2021/12/31 08:50:03;;;;;;;6.13;4.10;;;11.60;99.90;;;;;;5075228;28;20463;-63
2021/12/31 08:52:32;;;;;;;3.90;3.60;;;11.70;99.90;;;;;;5075748;28;20527;-63
2021/12/31 08:54:59;;;;;;;5.87;3.70;;;11.70;99.90;;;;;;5075220;28;20954;-63
2021/12/31 08:57:26;;;;;;;5.23;4.47;;;11.70;99.90;;;;;;5075465;28;20480;-63
2021/12/31 08:59:53;;;;;;;5.83;4.33;;;11.80;99.90;;;;;;5075535;28;20535;-63
2021/12/31 09:02:20;;;;;;;4.40;3.60;;;11.90;99.90;;;;;;5075218;28;20523;-63
2021/12/31 09:04:47;;;;;;;5.70;4.50;;;11.90;99.90;;;;;;5075320;28;20502;-63
2021/12/31 09:07:15;;;;;;;4.73;4.20;;;12.00;99.90;;;;;;5075660;28;20448;-63
2021/12/31 09:09:44;;;;;;;4.83;4.40;;;12.00;99.90;;;;;;5074964;28;20539;-63
2021/12/31 09:12:11;;;;;;;6.20;5.13;;;12.00;99.90;;;;;;5074874;28;20472;-63
2021/12/31 09:14:38;;;;;;;5.70;4.80;;;12.10;99.90;;;;;;5075364;28;20792;-63
2021/12/31 09:17:05;;;;;;;4.87;4.23;;;12.20;99.90;;;;;;5074759;28;21029;-63
2021/12/31 09:19:32;;;;;;;5.50;4.40;;;12.20;99.90;;;;;;5074812;28;20450;-63
2021/12/31 09:21:59;;;;;;;5.57;4.97;;;12.20;99.90;;;;;;5074732;28;20472;-63
2021/12/31 09:24:26;;;;;;;6.40;4.97;;;12.30;99.90;;;;;;5074973;28;20471;-63
2021/12/31 09:26:55;;;;;;;6.13;4.70;;;12.30;99.90;;;;;;5075021;28;20445;-63
2021/12/31 09:29:23;;;;;;;6.40;5.80;;;12.40;99.90;;;;;;5074949;28;20444;-63
2021/12/31 09:31:51;;;;;;;5.67;4.77;;;12.30;99.90;;;;;;5074635;28;20998;-63
2021/12/31 09:34:18;;;;;;;5.87;4.47;;;12.30;99.90;;;;;;5074700;28;20514;-63
2021/12/31 09:36:46;;;;;;;5.30;4.53;;;12.50;99.90;;;;;;5074130;28;20965;-63
2021/12/31 09:39:13;;;;;;;5.87;5.00;;;12.50;99.90;;;;;;5074892;28;20875;-63
2021/12/31 09:41:40;;;;;;;5.70;4.50;;;12.40;99.90;;;;;;5074312;28;20467;-63
2021/12/31 09:44:10;;;;;;;5.00;4.50;;;12.40;99.90;;;;;;5074548;28;20876;-63
2021/12/31 09:46:37;;;;;;;6.43;5.00;;;12.30;99.90;;;;;;5074657;28;20441;-63
2021/12/31 09:49:04;;;;;;;6.10;5.23;;;12.30;99.90;;;;;;5074307;28;20807;-63
2021/12/31 09:51:32;;;;;;;7.80;4.83;;;12.30;99.90;;;;;;5074080;28;20559;-63
2021/12/31 09:53:59;;;;;;;6.70;6.03;;;12.50;99.90;;;;;;5074532;28;20466;-63
2021/12/31 09:56:27;;;;;;;5.53;4.67;;;12.60;99.90;;;;;;5074234;28;20449;-63
2021/12/31 09:58:54;;;;;;;6.63;5.47;;;12.60;99.90;;;;;;5074230;28;20480;-63
2021/12/31 10:01:23;;;;;;;5.40;4.50;;;12.50;99.90;;;;;;5074037;28;20467;-63
2021/12/31 10:04:00;;;;;;;6.30;5.70;;;12.50;99.90;;;;;;5074051;28;20455;-63
2021/12/31 10:06:27;;;;;;;5.60;4.47;;;12.50;99.90;;;;;;5073929;28;20460;-63
2021/12/31 10:08:57;;;;;;;5.23;4.73;;;12.50;99.90;;;;;;5073918;28;20472;-63
2021/12/31 10:11:25;;;;;;;5.03;4.53;;;12.50;99.90;;;;;;5073809;28;20563;-63
2021/12/31 10:13:56;;;;;;;5.10;4.60;;;12.70;99.90;;;;;;5073673;28;20563;-63
2021/12/31 10:16:26;;;;;;;7.23;4.57;;;12.70;99.90;;;;;;5074015;28;20432;-63
2021/12/31 10:19:06;;;;;;;6.33;5.00;;;12.80;99.90;;;;;;5073513;28;20990;-63
2021/12/31 10:21:38;;;;;;;6.10;5.07;;;12.90;99.90;;;;;;5073971;28;20593;-63
2021/12/31 10:24:21;;;;;;;4.97;4.47;;;12.80;99.90;;;;;;5073603;28;20444;-63
2021/12/31 10:26:48;;;;;;;5.30;4.50;;;12.90;99.90;;;;;;5073648;28;20519;-63
2021/12/31 10:29:15;;;;;;;4.83;4.43;;;13.10;99.90;;;;;;5073520;28;20444;-63
2021/12/31 10:31:45;;;;;;;5.77;5.10;;;13.10;99.90;;;;;;5073283;28;20908;-63
2021/12/31 10:34:26;;;;;;;8.30;4.70;;;13.20;99.90;;;;;;5073390;28;20455;-63
2021/12/31 10:36:54;;;;;;;6.90;5.53;;;13.20;99.90;;;;;;5072557;28;20464;-63
2021/12/31 10:39:24;;;;;;;5.20;4.70;;;13.50;99.90;;;;;;5073327;28;20484;-63
2021/12/31 10:42:02;;;;;;;5.00;4.57;;;13.90;99.90;;;;;;5073150;28;20468;-63
2021/12/31 10:44:42;;;;;;;7.27;4.93;;;;;;;;;;5073453;28;20436;-63
2021/12/31 10:47:12;;;;;;;4.30;3.90;;;16.50;99.90;;;;;;5073519;28;20458;-63
2021/12/31 10:50:14;;;;;;;3.53;3.20;;;17.80;99.90;;;;;;5073199;28;20918;-62
2021/12/31 10:52:45;;;;;;;4.60;3.93;;;;;;;;;;5073556;28;20435;-63
2021/12/31 10:55:22;;;;;;;4.00;3.67;;;19.50;99.90;;;;;;5073524;28;20429;-63
2021/12/31 10:57:53;;;;;;;5.13;3.70;;;19.70;99.90;;;;;;5073326;28;20467;-63
2021/12/31 11:00:22;;;;;;;3.53;3.23;;;20.10;99.90;;;;;;5073262;28;20495;-63
2021/12/31 11:02:51;;;;;;;4.30;3.20;;;19.90;99.90;;;;;;5073036;28;20497;-63
2021/12/31 11:05:21;;;;;;;3.53;3.23;;;20.30;99.90;;;;;;5072987;28;20472;-62
2021/12/31 11:07:49;;;;;;;3.70;3.30;;;20.60;99.90;;;;;;5072915;28;20425;-62
2021/12/31 11:10:16;;;;;;;2.47;2.27;;;20.60;99.90;;;;;;5073239;28;20464;-63
2021/12/31 11:12:47;;;;;;;3.10;2.80;;;20.40;99.90;;;;;;5072639;28;20476;-63
2021/12/31 11:15:16;;;;;;;3.60;2.50;;;20.70;99.90;;;;;;5072967;28;20428;-63
2021/12/31 11:17:43;;;;;;;3.40;2.87;;;21.00;99.90;;;;;;5072665;28;20658;-63
2021/12/31 11:20:14;;;;;;;5.13;2.53;;;20.90;99.90;;;;;;5072986;28;20459;-63
2021/12/31 11:22:41;;;;;;;3.53;3.07;;;21.20;99.90;;;;;;5073272;28;20413;-63
2021/12/31 11:25:26;;;;;;;2.90;2.70;;;21.10;99.90;;;;;;5073266;28;20444;-63
2021/12/31 11:27:55;;;;;;;3.63;3.30;;;21.10;99.90;;;;;;5073002;28;20425;-63
2021/12/31 11:30:35;;;;;;;3.10;2.80;;;20.90;99.90;;;;;;5072717;28;20478;-63
2021/12/31 11:33:06;;;;;;;3.30;2.63;;;21.00;99.90;;;;;;5073039;28;20437;-64
2021/12/31 11:35:46;;;;;;;3.40;3.03;;;21.10;99.90;;;;;;5072890;28;20504;-62
2021/12/31 11:38:39;;;;;;;3.43;2.90;;;21.30;99.90;;;;;;5072605;28;20472;-64
2021/12/31 11:41:08;;;;;;;2.77;2.57;;;21.50;99.90;;;;;;5072313;28;20560;-63
2021/12/31 11:43:37;;;;;;;2.80;2.60;;;21.70;99.90;;;;;;5072507;28;20456;-64
2021/12/31 11:46:44;;;;;;;5.43;2.80;;;21.40;99.90;;;;;;5072893;28;20870;-64
2021/12/31 11:49:19;;;;;;;3.13;2.87;;;20.30;99.90;;;;;;5076909;28;20451;-63
2021/12/31 11:52:06;;;;;;;3.33;2.90;;;18.80;99.90;;;;;;5076754;28;20474;-64
2021/12/31 11:54:35;;;;;;;2.87;2.67;;;18.60;99.90;;;;;;5076516;28;20436;-64
2021/12/31 11:57:07;;;;;;;2.90;2.70;;;18.90;99.90;;;;;;5076152;28;20939;-64
2021/12/31 11:59:37;;;;;;;2.80;2.20;;;19.10;99.90;;;;;;5076543;28;20468;-64
2021/12/31 12:02:15;;;;;;;2.70;2.50;;;18.90;99.90;;;;;;5076225;28;21002;-64
2021/12/31 12:04:45;;;;;;;2.53;2.33;;;18.60;99.90;;;;;;5076537;28;20899;-64
2021/12/31 12:07:33;;;;;;;2.83;2.60;;;17.90;99.90;;;;;;5076255;28;20498;-63
2021/12/31 12:10:24;;;;;;;2.70;2.50;;;17.60;99.90;;;;;;5076017;28;20443;-63
2021/12/31 12:12:57;;;;;;;2.13;1.93;;;17.30;99.90;;;;;;5075967;28;20971;-63
2021/12/31 12:15:30;;;;;;;2.67;2.47;;;17.10;99.90;;;;;;5076203;28;20495;-64
2021/12/31 12:17:59;;;;;;;2.70;2.50;;;17.70;99.90;;;;;;5076034;28;20464;-63
2021/12/31 12:20:35;;;;;;;2.37;2.17;;;17.90;99.90;;;;;;5075888;28;20475;-63
2021/12/31 12:23:10;;;;;;;2.97;2.37;;;18.10;99.90;;;;;;5076150;28;20448;-63
2021/12/31 12:25:38;;;;;;;2.67;2.20;;;18.10;99.90;;;;;;5076360;28;20432;-63
2021/12/31 12:28:07;;;;;;;4.27;2.30;;;17.90;99.90;;;;;;5075794;28;20448;-63
2021/12/31 12:30:35;;;;;;;3.17;2.57;;;17.70;99.90;;;;;;5076059;28;20554;-63
2021/12/31 12:33:16;;;;;;;2.90;2.70;;;17.40;99.90;;;;;;5075647;28;20505;-64
2021/12/31 12:35:45;;;;;;;2.30;2.10;;;17.10;99.90;;;;;;5076070;28;20459;-64
2021/12/31 12:38:18;;;;;;;2.83;2.63;;;17.00;99.90;;;;;;5076018;28;20468;-64
2021/12/31 12:40:46;;;;;;;2.33;2.13;;;16.80;99.90;;;;;;5075842;28;20468;-63
2021/12/31 12:43:15;;;;;;;2.27;2.10;;;17.00;99.90;;;;;;5075410;28;20625;-63
2021/12/31 12:45:43;;;;;;;4.33;2.10;;;17.10;99.90;;;;;;5075722;28;20815;-63
2021/12/31 12:48:11;;;;;;;2.40;2.10;;;17.00;99.90;;;;;;5075783;28;20444;-63
2021/12/31 12:50:39;;;;;;;2.20;2.00;;;17.10;99.90;;;;;;5075796;28;20818;-64
2021/12/31 12:53:07;;;;;;;2.43;2.20;;;17.40;99.90;;;;;;5075857;28;20444;-64
2021/12/31 12:55:36;;;;;;;3.07;2.77;;;17.70;99.90;;;;;;5075381;28;20444;-63
2021/12/31 12:58:03;;;;;;;3.63;2.63;;;17.60;99.90;;;;;;5074993;28;20535;-63
2021/12/31 13:00:35;;;;;;;2.70;2.50;;;;;;;;;;5075382;28;20579;-64